sensor_id;sensor_type;location;lat;lon;timestamp;P1;durP1;ratioP1;P2;durP2;ratioP2
21272;SDS011;36726;52.328;10.552;2022-12-16T00:01:16;27.25;;;9.40;;
21272;SDS011;36726;52.328;10.552;2022-12-16T00:03:47;19.52;;;8.77;;
21272;SDS011;36726;52.328;10.552;2022-12-16T00:06:17;18.52;;;8.68;;
21272;SDS011;36726;52.328;10.552;2022-12-16T00:08:45;19.85;;;9.75;;
21272;SDS011;36726;52.328;10.552;2022-12-16T00:11:12;18.15;;;9.25;;
21272;SDS011;36726;52.328;10.552;2022-12-16T00:13:39;21.25;;;9.30;;
21272;SDS011;36726;52.328;10.552;2022-12-16T00:16:06;20.33;;;8.90;;
21272;SDS011;36726;52.328;10.552;2022-12-16T00:18:37;13.95;;;7.68;;
21272;SDS011;36726;52.328;10.552;2022-12-16T00:21:05;19.55;;;8.07;;
21272;SDS011;36726;52.328;10.552;2022-12-16T00:23:33;21.85;;;8.68;;
21272;SDS011;36726;52.328;10.552;2022-12-16T00:26:01;15.57;;;7.65;;
21272;SDS011;36726;52.328;10.552;2022-12-16T00:28:31;18.67;;;7.80;;
21272;SDS011;36726;52.328;10.552;2022-12-16T00:30:58;14.93;;;7.53;;
21272;SDS011;36726;52.328;10.552;2022-12-16T00:33:25;16.92;;;7.60;;
21272;SDS011;36726;52.328;10.552;2022-12-16T00:35:53;14.40;;;7.28;;
21272;SDS011;36726;52.328;10.552;2022-12-16T00:38:20;10.77;;;7.00;;
21272;SDS011;36726;52.328;10.552;2022-12-16T00:40:48;19.73;;;8.60;;
21272;SDS011;36726;52.328;10.552;2022-12-16T00:43:17;15.43;;;7.25;;
21272;SDS011;36726;52.328;10.552;2022-12-16T00:45:44;17.08;;;8.18;;
21272;SDS011;36726;52.328;10.552;2022-12-16T00:48:12;14.02;;;7.07;;
21272;SDS011;36726;52.328;10.552;2022-12-16T00:50:39;19.35;;;8.23;;
21272;SDS011;36726;52.328;10.552;2022-12-16T00:53:05;16.58;;;7.57;;
21272;SDS011;36726;52.328;10.552;2022-12-16T00:55:33;18.92;;;7.75;;
21272;SDS011;36726;52.328;10.552;2022-12-16T00:58:00;24.45;;;8.45;;
21272;SDS011;36726;52.328;10.552;2022-12-16T01:00:27;18.42;;;7.53;;
21272;SDS011;36726;52.328;10.552;2022-12-16T01:02:53;14.20;;;7.70;;
21272;SDS011;36726;52.328;10.552;2022-12-16T01:05:21;16.50;;;7.93;;
21272;SDS011;36726;52.328;10.552;2022-12-16T01:07:52;20.55;;;7.72;;
21272;SDS011;36726;52.328;10.552;2022-12-16T01:10:21;15.55;;;7.50;;
21272;SDS011;36726;52.328;10.552;2022-12-16T01:12:48;19.33;;;8.10;;
21272;SDS011;36726;52.328;10.552;2022-12-16T01:15:16;16.13;;;7.93;;
21272;SDS011;36726;52.328;10.552;2022-12-16T01:17:45;14.35;;;8.05;;
21272;SDS011;36726;52.328;10.552;2022-12-16T01:20:14;17.13;;;8.35;;
21272;SDS011;36726;52.328;10.552;2022-12-16T01:22:41;14.25;;;7.97;;
21272;SDS011;36726;52.328;10.552;2022-12-16T01:25:08;14.70;;;7.95;;
21272;SDS011;36726;52.328;10.552;2022-12-16T01:27:38;19.30;;;7.80;;
21272;SDS011;36726;52.328;10.552;2022-12-16T01:30:05;17.52;;;8.45;;
21272;SDS011;36726;52.328;10.552;2022-12-16T01:32:34;18.10;;;7.53;;
21272;SDS011;36726;52.328;10.552;2022-12-16T01:35:01;16.35;;;7.88;;
21272;SDS011;36726;52.328;10.552;2022-12-16T01:37:28;18.95;;;8.52;;
21272;SDS011;36726;52.328;10.552;2022-12-16T01:39:54;14.40;;;7.72;;
21272;SDS011;36726;52.328;10.552;2022-12-16T01:42:21;16.58;;;7.30;;
21272;SDS011;36726;52.328;10.552;2022-12-16T01:44:49;15.30;;;7.20;;
21272;SDS011;36726;52.328;10.552;2022-12-16T01:47:27;14.63;;;7.97;;
21272;SDS011;36726;52.328;10.552;2022-12-16T01:49:58;16.27;;;7.10;;
21272;SDS011;36726;52.328;10.552;2022-12-16T01:52:31;14.85;;;7.32;;
21272;SDS011;36726;52.328;10.552;2022-12-16T01:55:04;14.30;;;7.63;;
21272;SDS011;36726;52.328;10.552;2022-12-16T01:57:48;17.27;;;7.63;;
21272;SDS011;36726;52.328;10.552;2022-12-16T02:00:20;18.52;;;7.57;;
21272;SDS011;36726;52.328;10.552;2022-12-16T02:02:47;16.85;;;7.32;;
21272;SDS011;36726;52.328;10.552;2022-12-16T02:05:16;19.33;;;8.20;;
21272;SDS011;36726;52.328;10.552;2022-12-16T02:08:28;18.23;;;7.32;;
21272;SDS011;36726;52.328;10.552;2022-12-16T02:21:45;16.80;;;7.10;;
21272;SDS011;36726;52.328;10.552;2022-12-16T02:27:41;19.17;;;7.35;;
21272;SDS011;36726;52.328;10.552;2022-12-16T02:39:12;12.73;;;6.97;;
21272;SDS011;36726;52.328;10.552;2022-12-16T02:42:01;14.65;;;7.18;;
21272;SDS011;36726;52.328;10.552;2022-12-16T02:44:43;14.93;;;6.93;;
21272;SDS011;36726;52.328;10.552;2022-12-16T02:47:20;13.85;;;7.05;;
21272;SDS011;36726;52.328;10.552;2022-12-16T02:49:48;18.05;;;7.15;;
21272;SDS011;36726;52.328;10.552;2022-12-16T02:52:18;16.13;;;7.53;;
21272;SDS011;36726;52.328;10.552;2022-12-16T02:54:48;17.83;;;7.47;;
21272;SDS011;36726;52.328;10.552;2022-12-16T02:57:22;14.52;;;6.88;;
21272;SDS011;36726;52.328;10.552;2022-12-16T03:08:04;10.35;;;5.75;;
21272;SDS011;36726;52.328;10.552;2022-12-16T03:10:37;18.55;;;7.97;;
21272;SDS011;36726;52.328;10.552;2022-12-16T03:13:11;14.63;;;7.28;;
21272;SDS011;36726;52.328;10.552;2022-12-16T03:15:39;14.02;;;6.88;;
21272;SDS011;36726;52.328;10.552;2022-12-16T03:18:06;13.70;;;6.65;;
21272;SDS011;36726;52.328;10.552;2022-12-16T03:20:49;16.58;;;7.05;;
21272;SDS011;36726;52.328;10.552;2022-12-16T03:23:24;19.77;;;6.82;;
21272;SDS011;36726;52.328;10.552;2022-12-16T03:25:55;14.38;;;6.72;;
21272;SDS011;36726;52.328;10.552;2022-12-16T03:34:08;12.80;;;6.47;;
21272;SDS011;36726;52.328;10.552;2022-12-16T03:36:39;12.10;;;6.13;;
21272;SDS011;36726;52.328;10.552;2022-12-16T03:39:10;16.10;;;7.22;;
21272;SDS011;36726;52.328;10.552;2022-12-16T03:41:39;14.50;;;6.90;;
21272;SDS011;36726;52.328;10.552;2022-12-16T03:44:09;18.17;;;6.85;;
21272;SDS011;36726;52.328;10.552;2022-12-16T03:46:39;12.52;;;6.07;;
21272;SDS011;36726;52.328;10.552;2022-12-16T03:49:06;13.40;;;6.60;;
21272;SDS011;36726;52.328;10.552;2022-12-16T03:51:32;14.27;;;6.65;;
21272;SDS011;36726;52.328;10.552;2022-12-16T03:53:59;12.52;;;6.35;;
21272;SDS011;36726;52.328;10.552;2022-12-16T03:56:26;13.15;;;6.50;;
21272;SDS011;36726;52.328;10.552;2022-12-16T03:58:52;13.60;;;6.80;;
21272;SDS011;36726;52.328;10.552;2022-12-16T04:01:19;11.95;;;6.38;;
21272;SDS011;36726;52.328;10.552;2022-12-16T04:03:46;11.65;;;6.22;;
21272;SDS011;36726;52.328;10.552;2022-12-16T04:06:13;13.25;;;6.95;;
21272;SDS011;36726;52.328;10.552;2022-12-16T04:08:44;11.65;;;6.50;;
21272;SDS011;36726;52.328;10.552;2022-12-16T04:11:12;14.15;;;6.40;;
21272;SDS011;36726;52.328;10.552;2022-12-16T04:13:58;11.05;;;6.43;;
21272;SDS011;36726;52.328;10.552;2022-12-16T04:16:44;13.80;;;6.20;;
21272;SDS011;36726;52.328;10.552;2022-12-16T04:19:31;14.52;;;5.63;;
21272;SDS011;36726;52.328;10.552;2022-12-16T04:22:30;15.43;;;6.07;;
21272;SDS011;36726;52.328;10.552;2022-12-16T04:25:25;15.27;;;6.32;;
21272;SDS011;36726;52.328;10.552;2022-12-16T04:27:57;12.40;;;6.97;;
21272;SDS011;36726;52.328;10.552;2022-12-16T04:30:26;13.38;;;6.47;;
21272;SDS011;36726;52.328;10.552;2022-12-16T04:32:55;13.48;;;6.78;;
21272;SDS011;36726;52.328;10.552;2022-12-16T04:35:46;14.55;;;7.00;;
21272;SDS011;36726;52.328;10.552;2022-12-16T04:38:39;13.10;;;7.03;;
21272;SDS011;36726;52.328;10.552;2022-12-16T04:41:24;11.43;;;6.00;;
21272;SDS011;36726;52.328;10.552;2022-12-16T04:44:10;12.13;;;6.55;;
21272;SDS011;36726;52.328;10.552;2022-12-16T04:47:12;14.00;;;5.80;;
21272;SDS011;36726;52.328;10.552;2022-12-16T04:49:58;12.40;;;5.68;;
21272;SDS011;36726;52.328;10.552;2022-12-16T04:52:43;19.45;;;5.78;;
21272;SDS011;36726;52.328;10.552;2022-12-16T04:55:29;12.63;;;6.47;;
21272;SDS011;36726;52.328;10.552;2022-12-16T04:58:14;13.32;;;7.00;;
21272;SDS011;36726;52.328;10.552;2022-12-16T05:00:59;17.58;;;7.72;;
21272;SDS011;36726;52.328;10.552;2022-12-16T05:03:45;15.13;;;6.35;;
21272;SDS011;36726;52.328;10.552;2022-12-16T05:06:33;12.57;;;6.65;;
21272;SDS011;36726;52.328;10.552;2022-12-16T05:09:18;18.13;;;6.78;;
21272;SDS011;36726;52.328;10.552;2022-12-16T05:12:06;13.65;;;6.78;;
21272;SDS011;36726;52.328;10.552;2022-12-16T05:14:51;15.68;;;6.93;;
21272;SDS011;36726;52.328;10.552;2022-12-16T05:17:36;20.13;;;6.47;;
21272;SDS011;36726;52.328;10.552;2022-12-16T05:20:25;13.77;;;6.57;;
21272;SDS011;36726;52.328;10.552;2022-12-16T05:23:10;11.52;;;5.88;;
21272;SDS011;36726;52.328;10.552;2022-12-16T05:26:01;15.02;;;5.57;;
21272;SDS011;36726;52.328;10.552;2022-12-16T05:28:47;11.85;;;5.90;;
21272;SDS011;36726;52.328;10.552;2022-12-16T05:31:34;13.32;;;6.55;;
21272;SDS011;36726;52.328;10.552;2022-12-16T05:34:19;16.02;;;6.35;;
21272;SDS011;36726;52.328;10.552;2022-12-16T05:37:05;12.27;;;6.55;;
21272;SDS011;36726;52.328;10.552;2022-12-16T05:39:51;15.57;;;6.53;;
21272;SDS011;36726;52.328;10.552;2022-12-16T05:42:36;12.70;;;5.97;;
21272;SDS011;36726;52.328;10.552;2022-12-16T05:45:21;15.85;;;7.05;;
21272;SDS011;36726;52.328;10.552;2022-12-16T05:48:07;14.30;;;5.65;;
21272;SDS011;36726;52.328;10.552;2022-12-16T05:50:52;16.45;;;6.90;;
21272;SDS011;36726;52.328;10.552;2022-12-16T05:53:37;15.20;;;6.72;;
21272;SDS011;36726;52.328;10.552;2022-12-16T05:56:22;17.38;;;6.85;;
21272;SDS011;36726;52.328;10.552;2022-12-16T05:59:07;13.85;;;6.03;;
21272;SDS011;36726;52.328;10.552;2022-12-16T06:01:52;11.23;;;6.63;;
21272;SDS011;36726;52.328;10.552;2022-12-16T06:04:41;12.43;;;6.15;;
21272;SDS011;36726;52.328;10.552;2022-12-16T06:07:26;13.88;;;6.88;;
21272;SDS011;36726;52.328;10.552;2022-12-16T06:10:11;12.02;;;6.30;;
21272;SDS011;36726;52.328;10.552;2022-12-16T06:12:57;10.95;;;5.88;;
21272;SDS011;36726;52.328;10.552;2022-12-16T06:15:42;12.35;;;6.40;;
21272;SDS011;36726;52.328;10.552;2022-12-16T06:18:33;16.35;;;7.20;;
21272;SDS011;36726;52.328;10.552;2022-12-16T06:21:19;17.98;;;7.43;;
21272;SDS011;36726;52.328;10.552;2022-12-16T06:24:04;15.48;;;7.20;;
21272;SDS011;36726;52.328;10.552;2022-12-16T06:26:50;14.20;;;7.82;;
21272;SDS011;36726;52.328;10.552;2022-12-16T06:29:35;15.38;;;6.75;;
21272;SDS011;36726;52.328;10.552;2022-12-16T06:32:20;17.38;;;7.22;;
21272;SDS011;36726;52.328;10.552;2022-12-16T06:35:05;18.83;;;7.85;;
21272;SDS011;36726;52.328;10.552;2022-12-16T06:38:01;15.23;;;7.35;;
21272;SDS011;36726;52.328;10.552;2022-12-16T06:40:46;18.50;;;7.57;;
21272;SDS011;36726;52.328;10.552;2022-12-16T06:43:31;16.90;;;7.28;;
21272;SDS011;36726;52.328;10.552;2022-12-16T06:46:17;15.35;;;7.80;;
21272;SDS011;36726;52.328;10.552;2022-12-16T06:49:02;19.75;;;7.65;;
21272;SDS011;36726;52.328;10.552;2022-12-16T06:51:50;14.18;;;7.13;;
21272;SDS011;36726;52.328;10.552;2022-12-16T06:54:36;13.68;;;6.20;;
21272;SDS011;36726;52.328;10.552;2022-12-16T06:57:22;17.63;;;7.40;;
21272;SDS011;36726;52.328;10.552;2022-12-16T07:00:08;13.75;;;7.43;;
21272;SDS011;36726;52.328;10.552;2022-12-16T07:02:53;16.08;;;7.10;;
21272;SDS011;36726;52.328;10.552;2022-12-16T07:05:39;16.42;;;7.45;;
21272;SDS011;36726;52.328;10.552;2022-12-16T07:08:24;17.70;;;8.25;;
21272;SDS011;36726;52.328;10.552;2022-12-16T07:11:09;16.23;;;8.02;;
21272;SDS011;36726;52.328;10.552;2022-12-16T07:13:54;15.43;;;7.68;;
21272;SDS011;36726;52.328;10.552;2022-12-16T07:16:40;14.60;;;7.63;;
21272;SDS011;36726;52.328;10.552;2022-12-16T07:19:25;18.95;;;7.78;;
21272;SDS011;36726;52.328;10.552;2022-12-16T07:22:24;14.15;;;7.40;;
21272;SDS011;36726;52.328;10.552;2022-12-16T07:25:09;15.88;;;7.53;;
21272;SDS011;36726;52.328;10.552;2022-12-16T07:27:54;16.95;;;7.88;;
21272;SDS011;36726;52.328;10.552;2022-12-16T07:30:41;17.23;;;7.97;;
21272;SDS011;36726;52.328;10.552;2022-12-16T07:33:27;15.07;;;7.30;;
21272;SDS011;36726;52.328;10.552;2022-12-16T07:36:12;14.30;;;7.47;;
21272;SDS011;36726;52.328;10.552;2022-12-16T07:38:59;13.13;;;7.63;;
21272;SDS011;36726;52.328;10.552;2022-12-16T07:41:49;16.13;;;7.63;;
21272;SDS011;36726;52.328;10.552;2022-12-16T07:44:34;16.17;;;7.88;;
21272;SDS011;36726;52.328;10.552;2022-12-16T07:47:19;17.15;;;8.25;;
21272;SDS011;36726;52.328;10.552;2022-12-16T07:50:04;19.75;;;9.00;;
21272;SDS011;36726;52.328;10.552;2022-12-16T07:52:53;15.23;;;8.52;;
21272;SDS011;36726;52.328;10.552;2022-12-16T07:55:39;18.85;;;8.32;;
21272;SDS011;36726;52.328;10.552;2022-12-16T07:58:25;23.42;;;8.48;;
21272;SDS011;36726;52.328;10.552;2022-12-16T08:01:10;23.85;;;9.90;;
21272;SDS011;36726;52.328;10.552;2022-12-16T08:03:56;17.02;;;8.35;;
21272;SDS011;36726;52.328;10.552;2022-12-16T08:06:41;31.35;;;13.45;;
21272;SDS011;36726;52.328;10.552;2022-12-16T08:09:26;19.05;;;9.90;;
21272;SDS011;36726;52.328;10.552;2022-12-16T08:12:28;18.08;;;7.93;;
21272;SDS011;36726;52.328;10.552;2022-12-16T08:15:13;20.63;;;9.85;;
21272;SDS011;36726;52.328;10.552;2022-12-16T08:17:58;18.77;;;9.05;;
21272;SDS011;36726;52.328;10.552;2022-12-16T08:20:44;17.58;;;8.55;;
21272;SDS011;36726;52.328;10.552;2022-12-16T08:23:29;22.08;;;9.38;;
21272;SDS011;36726;52.328;10.552;2022-12-16T08:26:14;15.27;;;8.30;;
21272;SDS011;36726;52.328;10.552;2022-12-16T08:28:59;17.83;;;8.77;;
21272;SDS011;36726;52.328;10.552;2022-12-16T08:32:05;19.48;;;8.95;;
21272;SDS011;36726;52.328;10.552;2022-12-16T08:34:49;16.35;;;8.80;;
21272;SDS011;36726;52.328;10.552;2022-12-16T08:37:35;26.30;;;9.88;;
21272;SDS011;36726;52.328;10.552;2022-12-16T08:40:20;22.48;;;10.05;;
21272;SDS011;36726;52.328;10.552;2022-12-16T08:43:06;19.98;;;10.35;;
21272;SDS011;36726;52.328;10.552;2022-12-16T08:45:52;20.98;;;9.23;;
21272;SDS011;36726;52.328;10.552;2022-12-16T08:48:38;19.42;;;9.70;;
21272;SDS011;36726;52.328;10.552;2022-12-16T08:51:24;20.75;;;10.07;;
21272;SDS011;36726;52.328;10.552;2022-12-16T08:54:09;25.80;;;10.63;;
21272;SDS011;36726;52.328;10.552;2022-12-16T08:57:08;20.80;;;10.55;;
21272;SDS011;36726;52.328;10.552;2022-12-16T08:59:53;19.58;;;10.48;;
21272;SDS011;36726;52.328;10.552;2022-12-16T09:02:38;23.30;;;10.93;;
21272;SDS011;36726;52.328;10.552;2022-12-16T09:05:34;25.30;;;11.50;;
21272;SDS011;36726;52.328;10.552;2022-12-16T09:08:19;24.15;;;11.73;;
21272;SDS011;36726;52.328;10.552;2022-12-16T09:11:04;24.35;;;12.48;;
21272;SDS011;36726;52.328;10.552;2022-12-16T09:13:49;27.13;;;12.80;;
21272;SDS011;36726;52.328;10.552;2022-12-16T09:16:35;24.73;;;11.88;;
21272;SDS011;36726;52.328;10.552;2022-12-16T09:19:20;24.40;;;11.23;;
21272;SDS011;36726;52.328;10.552;2022-12-16T09:22:05;25.63;;;11.25;;
21272;SDS011;36726;52.328;10.552;2022-12-16T09:24:50;27.70;;;13.23;;
21272;SDS011;36726;52.328;10.552;2022-12-16T09:27:35;25.17;;;13.10;;
21272;SDS011;36726;52.328;10.552;2022-12-16T09:30:21;28.58;;;11.55;;
21272;SDS011;36726;52.328;10.552;2022-12-16T09:33:06;23.33;;;11.70;;
21272;SDS011;36726;52.328;10.552;2022-12-16T09:35:51;26.55;;;12.93;;
21272;SDS011;36726;52.328;10.552;2022-12-16T09:38:36;24.88;;;11.88;;
21272;SDS011;36726;52.328;10.552;2022-12-16T09:44:18;23.75;;;12.02;;
21272;SDS011;36726;52.328;10.552;2022-12-16T09:47:22;27.58;;;12.13;;
21272;SDS011;36726;52.328;10.552;2022-12-16T09:50:29;24.77;;;12.05;;
21272;SDS011;36726;52.328;10.552;2022-12-16T09:53:18;26.23;;;12.25;;
21272;SDS011;36726;52.328;10.552;2022-12-16T09:56:15;24.60;;;11.65;;
21272;SDS011;36726;52.328;10.552;2022-12-16T09:59:10;27.20;;;11.85;;
21272;SDS011;36726;52.328;10.552;2022-12-16T10:01:59;26.45;;;12.20;;
21272;SDS011;36726;52.328;10.552;2022-12-16T10:04:46;27.58;;;13.18;;
21272;SDS011;36726;52.328;10.552;2022-12-16T10:07:37;24.15;;;12.02;;
21272;SDS011;36726;52.328;10.552;2022-12-16T10:22:43;24.25;;;12.60;;
21272;SDS011;36726;52.328;10.552;2022-12-16T10:25:45;26.48;;;13.40;;
21272;SDS011;36726;52.328;10.552;2022-12-16T10:28:47;26.75;;;13.70;;
21272;SDS011;36726;52.328;10.552;2022-12-16T10:31:36;33.17;;;13.32;;
21272;SDS011;36726;52.328;10.552;2022-12-16T10:34:26;29.10;;;14.40;;
21272;SDS011;36726;52.328;10.552;2022-12-16T10:37:15;30.95;;;14.13;;
21272;SDS011;36726;52.328;10.552;2022-12-16T10:40:12;36.13;;;15.18;;
21272;SDS011;36726;52.328;10.552;2022-12-16T10:43:01;25.38;;;12.73;;
21272;SDS011;36726;52.328;10.552;2022-12-16T10:45:49;28.70;;;13.32;;
21272;SDS011;36726;52.328;10.552;2022-12-16T10:48:38;27.38;;;13.57;;
21272;SDS011;36726;52.328;10.552;2022-12-16T10:51:25;29.30;;;14.15;;
21272;SDS011;36726;52.328;10.552;2022-12-16T10:57:09;28.83;;;12.85;;
21272;SDS011;36726;52.328;10.552;2022-12-16T11:00:20;27.40;;;13.13;;
21272;SDS011;36726;52.328;10.552;2022-12-16T11:03:27;23.10;;;13.07;;
21272;SDS011;36726;52.328;10.552;2022-12-16T11:06:18;23.70;;;12.45;;
21272;SDS011;36726;52.328;10.552;2022-12-16T11:09:19;27.63;;;12.13;;
21272;SDS011;36726;52.328;10.552;2022-12-16T11:12:33;26.48;;;12.50;;
21272;SDS011;36726;52.328;10.552;2022-12-16T11:18:18;26.65;;;13.05;;
21272;SDS011;36726;52.328;10.552;2022-12-16T11:21:16;23.13;;;11.77;;
21272;SDS011;36726;52.328;10.552;2022-12-16T11:24:05;29.02;;;14.10;;
21272;SDS011;36726;52.328;10.552;2022-12-16T11:27:01;24.95;;;12.93;;
21272;SDS011;36726;52.328;10.552;2022-12-16T11:29:50;25.25;;;13.20;;
21272;SDS011;36726;52.328;10.552;2022-12-16T11:32:37;29.48;;;13.68;;
21272;SDS011;36726;52.328;10.552;2022-12-16T11:35:27;27.70;;;13.18;;
21272;SDS011;36726;52.328;10.552;2022-12-16T11:38:20;23.13;;;12.77;;
21272;SDS011;36726;52.328;10.552;2022-12-16T11:41:10;26.50;;;13.15;;
21272;SDS011;36726;52.328;10.552;2022-12-16T11:44:14;26.40;;;13.73;;
21272;SDS011;36726;52.328;10.552;2022-12-16T11:47:29;24.98;;;12.63;;
21272;SDS011;36726;52.328;10.552;2022-12-16T11:50:32;26.98;;;13.40;;
21272;SDS011;36726;52.328;10.552;2022-12-16T11:53:43;27.10;;;13.57;;
21272;SDS011;36726;52.328;10.552;2022-12-16T11:56:33;32.75;;;13.38;;
21272;SDS011;36726;52.328;10.552;2022-12-16T12:06:13;23.08;;;13.07;;
21272;SDS011;36726;52.328;10.552;2022-12-16T12:09:14;33.58;;;14.93;;
21272;SDS011;36726;52.328;10.552;2022-12-16T12:15:15;27.77;;;13.48;;
21272;SDS011;36726;52.328;10.552;2022-12-16T12:22:00;27.02;;;13.75;;
21272;SDS011;36726;52.328;10.552;2022-12-16T12:24:52;33.70;;;15.27;;
21272;SDS011;36726;52.328;10.552;2022-12-16T12:27:55;24.05;;;12.88;;
21272;SDS011;36726;52.328;10.552;2022-12-16T12:30:52;26.13;;;14.00;;
21272;SDS011;36726;52.328;10.552;2022-12-16T12:37:09;31.15;;;16.65;;
21272;SDS011;36726;52.328;10.552;2022-12-16T12:40:15;24.95;;;13.32;;
21272;SDS011;36726;52.328;10.552;2022-12-16T12:43:56;23.40;;;13.57;;
21272;SDS011;36726;52.328;10.552;2022-12-16T12:46:59;26.05;;;14.23;;
21272;SDS011;36726;52.328;10.552;2022-12-16T12:55:58;24.95;;;13.95;;
21272;SDS011;36726;52.328;10.552;2022-12-16T12:58:49;28.90;;;14.02;;
21272;SDS011;36726;52.328;10.552;2022-12-16T13:01:39;25.33;;;13.13;;
21272;SDS011;36726;52.328;10.552;2022-12-16T13:04:30;28.35;;;13.50;;
21272;SDS011;36726;52.328;10.552;2022-12-16T13:07:18;23.90;;;12.85;;
21272;SDS011;36726;52.328;10.552;2022-12-16T13:13:24;27.60;;;15.27;;
21272;SDS011;36726;52.328;10.552;2022-12-16T13:22:28;30.10;;;14.25;;
21272;SDS011;36726;52.328;10.552;2022-12-16T13:25:28;26.63;;;14.07;;
21272;SDS011;36726;52.328;10.552;2022-12-16T13:28:20;32.45;;;14.30;;
21272;SDS011;36726;52.328;10.552;2022-12-16T13:31:13;27.35;;;14.65;;
21272;SDS011;36726;52.328;10.552;2022-12-16T13:34:19;31.60;;;14.75;;
21272;SDS011;36726;52.328;10.552;2022-12-16T13:37:17;26.40;;;13.50;;
21272;SDS011;36726;52.328;10.552;2022-12-16T13:40:20;26.73;;;14.40;;
21272;SDS011;36726;52.328;10.552;2022-12-16T13:43:16;24.70;;;13.27;;
21272;SDS011;36726;52.328;10.552;2022-12-16T13:46:44;32.20;;;13.80;;
21272;SDS011;36726;52.328;10.552;2022-12-16T13:49:54;28.00;;;12.93;;
21272;SDS011;36726;52.328;10.552;2022-12-16T13:55:26;26.33;;;13.73;;
21272;SDS011;36726;52.328;10.552;2022-12-16T13:58:39;26.77;;;12.88;;
21272;SDS011;36726;52.328;10.552;2022-12-16T14:01:27;24.13;;;12.85;;
21272;SDS011;36726;52.328;10.552;2022-12-16T14:04:31;25.30;;;13.52;;
21272;SDS011;36726;52.328;10.552;2022-12-16T14:07:38;25.67;;;13.68;;
21272;SDS011;36726;52.328;10.552;2022-12-16T14:10:28;27.30;;;13.63;;
21272;SDS011;36726;52.328;10.552;2022-12-16T14:13:21;29.00;;;14.18;;
21272;SDS011;36726;52.328;10.552;2022-12-16T14:16:35;30.13;;;14.90;;
21272;SDS011;36726;52.328;10.552;2022-12-16T14:22:49;36.67;;;16.92;;
21272;SDS011;36726;52.328;10.552;2022-12-16T14:26:01;32.85;;;16.48;;
21272;SDS011;36726;52.328;10.552;2022-12-16T14:28:48;35.60;;;18.15;;
21272;SDS011;36726;52.328;10.552;2022-12-16T14:31:36;36.00;;;19.20;;
21272;SDS011;36726;52.328;10.552;2022-12-16T14:34:34;47.28;;;24.67;;
21272;SDS011;36726;52.328;10.552;2022-12-16T14:40:22;42.58;;;19.90;;
21272;SDS011;36726;52.328;10.552;2022-12-16T14:46:01;31.50;;;16.50;;
21272;SDS011;36726;52.328;10.552;2022-12-16T14:48:47;32.72;;;18.80;;
21272;SDS011;36726;52.328;10.552;2022-12-16T14:51:34;33.45;;;17.25;;
21272;SDS011;36726;52.328;10.552;2022-12-16T14:54:35;34.55;;;16.20;;
21272;SDS011;36726;52.328;10.552;2022-12-16T14:57:23;33.92;;;17.23;;
21272;SDS011;36726;52.328;10.552;2022-12-16T15:00:11;31.60;;;16.80;;
21272;SDS011;36726;52.328;10.552;2022-12-16T15:03:20;33.38;;;17.13;;
21272;SDS011;36726;52.328;10.552;2022-12-16T15:06:17;33.28;;;17.35;;
21272;SDS011;36726;52.328;10.552;2022-12-16T15:09:10;41.08;;;19.17;;
21272;SDS011;36726;52.328;10.552;2022-12-16T15:12:01;32.78;;;18.00;;
21272;SDS011;36726;52.328;10.552;2022-12-16T15:14:46;40.67;;;17.30;;
21272;SDS011;36726;52.328;10.552;2022-12-16T15:17:40;37.70;;;17.70;;
21272;SDS011;36726;52.328;10.552;2022-12-16T15:20:29;37.17;;;17.55;;
21272;SDS011;36726;52.328;10.552;2022-12-16T15:23:38;37.13;;;17.52;;
21272;SDS011;36726;52.328;10.552;2022-12-16T15:26:26;34.40;;;17.95;;
21272;SDS011;36726;52.328;10.552;2022-12-16T15:37:55;36.67;;;17.60;;
21272;SDS011;36726;52.328;10.552;2022-12-16T15:40:40;41.92;;;19.05;;
21272;SDS011;36726;52.328;10.552;2022-12-16T15:43:27;38.33;;;18.83;;
21272;SDS011;36726;52.328;10.552;2022-12-16T15:46:23;33.17;;;18.08;;
21272;SDS011;36726;52.328;10.552;2022-12-16T15:49:44;30.00;;;16.58;;
21272;SDS011;36726;52.328;10.552;2022-12-16T15:52:39;32.33;;;17.33;;
21272;SDS011;36726;52.328;10.552;2022-12-16T15:55:34;37.92;;;19.52;;
21272;SDS011;36726;52.328;10.552;2022-12-16T15:58:29;38.40;;;19.33;;
21272;SDS011;36726;52.328;10.552;2022-12-16T16:01:19;43.47;;;19.25;;
21272;SDS011;36726;52.328;10.552;2022-12-16T16:10:23;33.53;;;17.95;;
21272;SDS011;36726;52.328;10.552;2022-12-16T16:13:08;32.15;;;16.98;;
21272;SDS011;36726;52.328;10.552;2022-12-16T16:15:54;38.10;;;18.20;;
21272;SDS011;36726;52.328;10.552;2022-12-16T16:18:40;38.80;;;19.90;;
21272;SDS011;36726;52.328;10.552;2022-12-16T16:21:26;36.67;;;19.42;;
21272;SDS011;36726;52.328;10.552;2022-12-16T16:24:12;38.08;;;18.63;;
21272;SDS011;36726;52.328;10.552;2022-12-16T16:26:59;42.05;;;18.52;;
21272;SDS011;36726;52.328;10.552;2022-12-16T16:29:46;40.65;;;18.85;;
21272;SDS011;36726;52.328;10.552;2022-12-16T16:32:31;37.45;;;19.10;;
21272;SDS011;36726;52.328;10.552;2022-12-16T16:35:17;46.00;;;21.02;;
21272;SDS011;36726;52.328;10.552;2022-12-16T16:38:02;39.58;;;20.63;;
21272;SDS011;36726;52.328;10.552;2022-12-16T16:40:48;36.75;;;19.27;;
21272;SDS011;36726;52.328;10.552;2022-12-16T16:43:33;39.67;;;19.17;;
21272;SDS011;36726;52.328;10.552;2022-12-16T16:49:07;39.88;;;19.27;;
21272;SDS011;36726;52.328;10.552;2022-12-16T16:51:53;37.45;;;18.92;;
21272;SDS011;36726;52.328;10.552;2022-12-16T16:54:39;36.10;;;18.70;;
21272;SDS011;36726;52.328;10.552;2022-12-16T16:57:24;47.47;;;21.17;;
21272;SDS011;36726;52.328;10.552;2022-12-16T17:00:14;41.33;;;20.70;;
21272;SDS011;36726;52.328;10.552;2022-12-16T17:03:00;40.72;;;20.38;;
21272;SDS011;36726;52.328;10.552;2022-12-16T17:05:46;39.45;;;19.80;;
21272;SDS011;36726;52.328;10.552;2022-12-16T17:08:31;45.17;;;21.63;;
21272;SDS011;36726;52.328;10.552;2022-12-16T17:11:17;42.55;;;21.75;;
21272;SDS011;36726;52.328;10.552;2022-12-16T17:14:05;45.38;;;20.75;;
21272;SDS011;36726;52.328;10.552;2022-12-16T17:16:54;39.35;;;20.13;;
21272;SDS011;36726;52.328;10.552;2022-12-16T17:19:39;39.40;;;19.85;;
21272;SDS011;36726;52.328;10.552;2022-12-16T17:22:25;35.42;;;18.38;;
21272;SDS011;36726;52.328;10.552;2022-12-16T17:25:11;42.30;;;18.73;;
21272;SDS011;36726;52.328;10.552;2022-12-16T17:27:58;34.55;;;18.23;;
21272;SDS011;36726;52.328;10.552;2022-12-16T17:30:43;33.80;;;17.63;;
21272;SDS011;36726;52.328;10.552;2022-12-16T17:33:29;35.60;;;18.40;;
21272;SDS011;36726;52.328;10.552;2022-12-16T17:36:14;36.28;;;18.75;;
21272;SDS011;36726;52.328;10.552;2022-12-16T17:39:02;42.35;;;19.65;;
21272;SDS011;36726;52.328;10.552;2022-12-16T17:41:49;40.50;;;18.77;;
21272;SDS011;36726;52.328;10.552;2022-12-16T17:44:34;42.35;;;20.83;;
21272;SDS011;36726;52.328;10.552;2022-12-16T17:47:21;43.00;;;21.02;;
21272;SDS011;36726;52.328;10.552;2022-12-16T17:50:07;46.85;;;24.13;;
21272;SDS011;36726;52.328;10.552;2022-12-16T17:52:56;34.67;;;18.80;;
21272;SDS011;36726;52.328;10.552;2022-12-16T17:56:03;40.35;;;20.52;;
21272;SDS011;36726;52.328;10.552;2022-12-16T17:58:49;36.83;;;18.80;;
21272;SDS011;36726;52.328;10.552;2022-12-16T18:01:36;40.72;;;20.70;;